createdAt,value
2023-02-23T00:01:53.812Z,20.80
2023-02-23T00:04:23.647Z,20.37
2023-02-23T00:06:53.830Z,20.80
2023-02-23T00:09:24.637Z,21.50
2023-02-23T00:11:53.931Z,22.10
2023-02-23T00:14:24.768Z,22.00
2023-02-23T00:16:54.018Z,22.40
2023-02-23T00:19:24.913Z,19.37
2023-02-23T00:22:16.280Z,22.70
2023-02-23T00:24:59.847Z,21.97
2023-02-23T00:27:31.741Z,20.27
2023-02-23T00:29:59.847Z,21.10
2023-02-23T00:32:27.793Z,19.93
2023-02-23T00:34:55.729Z,21.77
2023-02-23T00:37:25.351Z,21.67
2023-02-23T00:39:56.601Z,20.27
2023-02-23T00:42:24.959Z,22.17
2023-02-23T00:44:53.293Z,21.43
2023-02-23T00:47:21.046Z,21.67
2023-02-23T00:49:50.341Z,21.30
2023-02-23T00:52:17.964Z,20.80
2023-02-23T00:54:47.202Z,21.53
2023-02-23T00:57:15.309Z,22.83
2023-02-23T00:59:43.564Z,23.50
2023-02-23T01:02:11.370Z,20.27
2023-02-23T01:04:39.271Z,21.67
2023-02-23T01:07:07.052Z,22.87
2023-02-23T01:09:35.125Z,22.50
2023-02-23T01:12:08.092Z,20.23
2023-02-23T01:14:37.593Z,22.30
2023-02-23T01:17:05.260Z,22.63
2023-02-23T01:19:34.237Z,23.23
2023-02-23T01:22:04.400Z,22.50
2023-02-23T01:24:32.022Z,23.07
2023-02-23T01:26:59.793Z,22.20
2023-02-23T01:29:29.484Z,19.87
2023-02-23T01:31:57.366Z,22.07
2023-02-23T01:34:25.655Z,22.23
2023-02-23T01:36:53.384Z,22.13
2023-02-23T01:39:22.097Z,20.53
2023-02-23T01:41:51.709Z,22.77
2023-02-23T01:44:58.506Z,22.87
2023-02-23T01:47:27.960Z,23.10
2023-02-23T01:49:56.077Z,22.10
2023-02-23T01:52:23.811Z,23.67
2023-02-23T01:54:54.266Z,22.90
2023-02-23T01:57:25.044Z,23.43
2023-02-23T01:59:54.879Z,23.63
2023-02-23T02:02:32.995Z,24.20
2023-02-23T02:05:04.081Z,23.20
2023-02-23T02:07:35.496Z,24.97
2023-02-23T02:10:20.426Z,23.87
2023-02-23T02:12:52.215Z,23.50
2023-02-23T02:15:25.894Z,23.17
2023-02-23T02:18:00.776Z,24.57
2023-02-23T02:20:52.749Z,24.63
2023-02-23T02:23:53.470Z,25.50
2023-02-23T02:26:27.933Z,22.57
2023-02-23T02:29:24.160Z,24.67
2023-02-23T02:32:47.355Z,22.87
2023-02-23T02:35:44.373Z,23.57
2023-02-23T02:38:19.317Z,25.97
2023-02-23T02:40:54.455Z,26.03
2023-02-23T02:43:27.052Z,25.77
2023-02-23T02:45:57.076Z,24.70
2023-02-23T02:48:31.889Z,23.83
2023-02-23T02:51:03.523Z,24.63
2023-02-23T02:53:40.921Z,24.13
2023-02-23T02:56:09.194Z,24.70
2023-02-23T02:58:39.009Z,24.80
2023-02-23T03:01:30.274Z,24.80
2023-02-23T03:04:16.717Z,22.53
2023-02-23T03:07:04.569Z,24.83
2023-02-23T03:09:56.100Z,23.63
2023-02-23T03:12:48.346Z,26.00
2023-02-23T03:15:44.997Z,23.17
2023-02-23T03:18:39.827Z,24.57
2023-02-23T03:21:31.533Z,26.00
2023-02-23T03:24:22.872Z,23.77
2023-02-23T03:27:12.729Z,25.80
2023-02-23T03:30:02.224Z,23.70
2023-02-23T03:32:52.106Z,25.40
2023-02-23T03:35:41.403Z,25.33
2023-02-23T03:38:31.232Z,23.80
2023-02-23T03:41:18.278Z,24.80
2023-02-23T03:44:09.440Z,24.77
2023-02-23T03:46:55.211Z,25.60
2023-02-23T03:49:42.611Z,23.27
2023-02-23T03:52:31.312Z,23.90
2023-02-23T03:55:18.647Z,24.80
2023-02-23T03:58:06.643Z,24.43
2023-02-23T04:00:57.367Z,23.40
2023-02-23T04:03:43.948Z,23.60
2023-02-23T04:06:31.572Z,26.70
2023-02-23T04:09:18.850Z,26.37
2023-02-23T04:12:06.883Z,26.47
2023-02-23T04:14:40.082Z,23.63
2023-02-23T04:17:08.320Z,23.80
2023-02-23T04:19:35.866Z,23.77
2023-02-23T04:22:03.393Z,24.90
2023-02-23T04:24:31.268Z,23.47
2023-02-23T04:26:58.784Z,27.67
2023-02-23T04:29:26.317Z,24.93
2023-02-23T04:31:54.073Z,24.20
2023-02-23T04:34:23.039Z,24.07
2023-02-23T04:36:51.266Z,25.07
2023-02-23T04:39:18.975Z,24.27
2023-02-23T04:41:48.863Z,23.93
2023-02-23T04:44:16.393Z,23.77
2023-02-23T04:46:44.017Z,24.17
2023-02-23T04:49:11.543Z,25.57
2023-02-23T04:51:40.362Z,25.40
2023-02-23T04:54:08.116Z,26.83
2023-02-23T04:56:35.733Z,25.30
2023-02-23T04:59:03.287Z,25.33
2023-02-23T05:01:32.607Z,25.10
2023-02-23T05:04:00.507Z,24.40
2023-02-23T05:06:28.126Z,25.30
2023-02-23T05:08:57.072Z,26.27
2023-02-23T05:11:24.973Z,27.77
2023-02-23T05:13:53.071Z,25.03
2023-02-23T05:16:20.645Z,26.83
2023-02-23T05:18:48.529Z,27.87
2023-02-23T05:21:16.360Z,25.60
2023-02-23T05:23:44.026Z,28.30
2023-02-23T05:26:14.656Z,28.20
2023-02-23T05:28:43.671Z,28.90
2023-02-23T05:31:11.776Z,29.37
2023-02-23T05:33:42.389Z,29.23
2023-02-23T05:36:11.783Z,28.33
2023-02-23T05:38:39.608Z,28.40
2023-02-23T05:41:08.081Z,27.40
2023-02-23T05:43:37.396Z,27.57
2023-02-23T05:46:07.832Z,27.03
2023-02-23T05:48:35.859Z,27.20
2023-02-23T05:51:03.962Z,26.77
2023-02-23T05:53:31.739Z,29.37
2023-02-23T05:55:59.522Z,29.17
2023-02-23T05:58:27.225Z,28.20
2023-02-23T06:00:56.426Z,28.00
2023-02-23T06:03:24.103Z,29.10
2023-02-23T06:05:52.901Z,30.07
2023-02-23T06:08:21.223Z,29.00
2023-02-23T06:10:48.921Z,28.67
2023-02-23T06:13:16.759Z,29.23
2023-02-23T06:15:44.967Z,28.90
2023-02-23T06:18:14.168Z,30.23
2023-02-23T06:20:41.962Z,29.90
2023-02-23T06:23:09.666Z,28.13
2023-02-23T06:25:37.463Z,29.83
2023-02-23T06:28:05.706Z,31.97
2023-02-23T06:30:33.388Z,31.87
2023-02-23T06:33:01.433Z,33.90
2023-02-23T06:35:30.563Z,30.70
2023-02-23T06:37:58.462Z,34.40
2023-02-23T06:40:26.263Z,36.80
2023-02-23T06:42:54.140Z,33.07
2023-02-23T06:45:22.159Z,34.73
2023-02-23T06:47:52.263Z,36.60
2023-02-23T06:50:20.704Z,41.30
2023-02-23T06:52:50.220Z,35.20
2023-02-23T06:55:18.144Z,35.77
2023-02-23T06:57:46.008Z,35.97
2023-02-23T07:00:17.401Z,34.83
2023-02-23T07:02:45.802Z,37.63
2023-02-23T07:05:13.579Z,35.10
2023-02-23T07:07:43.805Z,38.00
2023-02-23T07:10:13.625Z,39.20
2023-02-23T07:12:41.335Z,39.80
2023-02-23T07:15:10.397Z,36.30
2023-02-23T07:17:38.166Z,39.50
2023-02-23T07:20:07.118Z,39.63
2023-02-23T07:22:35.326Z,37.07
2023-02-23T07:25:04.472Z,39.87
2023-02-23T07:27:33.566Z,38.00
2023-02-23T07:30:02.884Z,41.07
2023-02-23T07:32:31.142Z,38.60
2023-02-23T07:34:58.923Z,39.43
2023-02-23T07:37:26.708Z,37.73
2023-02-23T07:39:54.348Z,37.43
2023-02-23T07:42:22.020Z,38.50
2023-02-23T07:44:51.049Z,36.57
2023-02-23T07:47:18.823Z,37.33
2023-02-23T07:49:46.570Z,36.20
2023-02-23T07:52:14.216Z,38.13
2023-02-23T07:54:41.960Z,37.70
2023-02-23T07:57:09.949Z,37.27
2023-02-23T07:59:39.204Z,40.33
2023-02-23T08:02:08.445Z,36.93
2023-02-23T08:04:36.276Z,35.47
2023-02-23T08:07:04.071Z,34.17
2023-02-23T08:09:32.804Z,36.37
2023-02-23T08:12:00.582Z,36.40
2023-02-23T08:14:29.016Z,32.83
2023-02-23T08:16:56.820Z,34.50
2023-02-23T08:19:26.360Z,35.50
2023-02-23T08:21:54.262Z,33.40
2023-02-23T08:24:22.391Z,30.93
2023-02-23T08:26:50.906Z,33.37
2023-02-23T08:29:18.798Z,33.50
2023-02-23T08:31:46.861Z,31.70
2023-02-23T08:34:15.091Z,35.10
2023-02-23T08:36:45.787Z,32.13
2023-02-23T08:39:14.482Z,35.30
2023-02-23T08:41:42.494Z,35.73
2023-02-23T08:44:10.249Z,32.93
2023-02-23T08:46:38.009Z,32.87
2023-02-23T08:49:06.439Z,32.50
2023-02-23T08:51:35.484Z,32.80
2023-02-23T08:54:04.795Z,30.57
2023-02-23T08:56:33.199Z,30.20
2023-02-23T08:59:00.794Z,28.50
2023-02-23T09:01:28.785Z,33.20
2023-02-23T09:03:56.474Z,33.63
2023-02-23T09:06:26.236Z,32.60
2023-02-23T09:08:55.319Z,32.03
2023-02-23T09:11:25.175Z,32.00
2023-02-23T09:13:52.894Z,30.87
2023-02-23T09:16:20.633Z,33.27
2023-02-23T09:18:48.592Z,33.20
2023-02-23T09:21:21.087Z,35.57
2023-02-23T09:23:51.326Z,35.53
2023-02-23T09:26:19.832Z,36.43
2023-02-23T09:28:50.165Z,38.73
2023-02-23T09:31:21.747Z,39.47
2023-02-23T09:33:49.904Z,41.80
2023-02-23T09:36:20.448Z,39.17
2023-02-23T09:38:52.433Z,40.60
2023-02-23T09:41:44.914Z,43.30
2023-02-23T09:44:22.717Z,42.27
2023-02-23T09:46:58.043Z,41.37
2023-02-23T09:49:30.337Z,43.30
2023-02-23T09:51:59.756Z,44.37
2023-02-23T09:54:30.633Z,44.27
2023-02-23T09:56:58.490Z,47.60
2023-02-23T09:59:28.812Z,48.30
2023-02-23T10:02:01.398Z,46.93
2023-02-23T10:04:32.055Z,48.70
2023-02-23T10:07:03.725Z,48.33
2023-02-23T10:09:43.976Z,53.47
2023-02-23T10:12:16.855Z,50.00
2023-02-23T10:15:01.169Z,49.87
2023-02-23T10:17:37.607Z,50.10
2023-02-23T10:20:17.363Z,54.10
2023-02-23T10:22:46.949Z,52.30
2023-02-23T10:25:17.293Z,51.60
2023-02-23T10:27:48.869Z,54.27
2023-02-23T10:30:23.997Z,50.50
2023-02-23T10:32:55.570Z,48.50
2023-02-23T10:35:24.588Z,51.40
2023-02-23T10:37:53.630Z,48.13
2023-02-23T10:40:23.479Z,51.17
2023-02-23T10:42:51.467Z,53.77
2023-02-23T10:45:24.548Z,51.93
2023-02-23T10:47:55.665Z,47.97
2023-02-23T10:50:29.200Z,49.07
2023-02-23T10:53:00.128Z,47.57
2023-02-23T10:55:29.343Z,53.47
2023-02-23T10:58:16.706Z,47.20
2023-02-23T11:00:54.489Z,49.37
2023-02-23T11:03:28.661Z,43.33
2023-02-23T11:05:56.612Z,47.10
2023-02-23T11:08:31.181Z,46.87
2023-02-23T11:11:06.577Z,42.30
2023-02-23T11:13:41.353Z,46.43
2023-02-23T11:16:13.311Z,45.90
2023-02-23T11:18:42.780Z,44.37
2023-02-23T11:21:12.479Z,42.50
2023-02-23T11:23:41.519Z,45.33
2023-02-23T11:26:23.133Z,42.17
2023-02-23T11:28:54.181Z,45.33
2023-02-23T11:31:29.339Z,42.10
2023-02-23T11:33:57.235Z,42.23
2023-02-23T11:36:29.494Z,39.60
2023-02-23T11:39:07.842Z,40.23
2023-02-23T11:41:37.189Z,39.07
2023-02-23T11:44:06.358Z,39.60
2023-02-23T11:46:38.131Z,41.10
2023-02-23T11:49:07.498Z,40.63
2023-02-23T11:51:37.931Z,39.07
2023-02-23T11:54:06.409Z,37.30
2023-02-23T11:56:35.571Z,37.70
2023-02-23T11:59:04.699Z,39.47
2023-02-23T12:01:41.722Z,39.87
2023-02-23T12:04:12.567Z,39.47
2023-02-23T12:06:42.710Z,40.73
2023-02-23T12:09:24.143Z,40.50
2023-02-23T12:11:56.612Z,39.50
2023-02-23T12:14:30.838Z,35.10
2023-02-23T12:17:09.580Z,37.27
2023-02-23T12:19:40.476Z,34.80
2023-02-23T12:22:13.385Z,35.47
2023-02-23T12:24:45.460Z,35.30
2023-02-23T12:27:17.136Z,33.60
2023-02-23T12:30:03.433Z,33.03
2023-02-23T12:32:43.624Z,31.83
2023-02-23T12:35:15.946Z,34.17
2023-02-23T12:37:46.317Z,32.27
2023-02-23T12:40:17.426Z,35.27
2023-02-23T12:42:56.272Z,33.30
2023-02-23T12:45:29.816Z,35.50
2023-02-23T12:48:06.222Z,35.80
2023-02-23T12:50:40.069Z,35.47
2023-02-23T12:53:16.196Z,36.00
2023-02-23T12:55:52.315Z,36.53
2023-02-23T12:58:26.029Z,38.70
2023-02-23T13:00:59.195Z,37.17
2023-02-23T13:03:50.287Z,32.47
2023-02-23T13:06:24.889Z,34.77
2023-02-23T13:09:00.110Z,36.07
2023-02-23T13:11:43.045Z,30.87
2023-02-23T13:14:15.455Z,33.43
2023-02-23T13:16:46.372Z,33.00
2023-02-23T13:19:21.091Z,33.50
2023-02-23T13:21:54.094Z,34.67
2023-02-23T13:24:25.769Z,33.20
2023-02-23T13:26:57.262Z,33.87
2023-02-23T13:29:32.732Z,35.60
2023-02-23T13:32:01.618Z,33.70
2023-02-23T13:34:32.526Z,30.00
2023-02-23T13:37:03.061Z,32.90
2023-02-23T13:39:47.721Z,32.33
2023-02-23T13:42:36.225Z,29.77
2023-02-23T13:45:22.160Z,31.00
2023-02-23T13:47:58.445Z,28.57
2023-02-23T13:50:31.648Z,28.53
2023-02-23T13:53:05.368Z,26.60
2023-02-23T13:55:50.394Z,27.57
2023-02-23T13:58:20.374Z,26.70
2023-02-23T14:00:56.118Z,26.97
2023-02-23T14:03:34.679Z,27.77
2023-02-23T14:06:08.276Z,26.83
2023-02-23T14:08:38.161Z,26.43
2023-02-23T14:11:40.691Z,26.80
2023-02-23T14:14:49.485Z,26.83
2023-02-23T14:18:15.802Z,21.50
2023-02-23T14:20:53.618Z,22.23
2023-02-23T14:23:37.086Z,23.17
2023-02-23T14:26:43.763Z,21.13
2023-02-23T14:29:22.235Z,20.47
2023-02-23T14:32:29.373Z,20.33
2023-02-23T14:35:00.355Z,20.27
2023-02-23T14:37:32.432Z,19.13
2023-02-23T14:40:16.381Z,35.37
2023-02-23T14:42:48.267Z,22.53
2023-02-23T14:45:25.739Z,20.93
2023-02-23T14:47:55.581Z,16.47
2023-02-23T14:50:27.452Z,16.10
2023-02-23T14:52:56.732Z,16.07
2023-02-23T14:55:29.428Z,15.07
2023-02-23T14:58:01.076Z,14.53
2023-02-23T15:00:36.204Z,15.13
2023-02-23T15:03:09.445Z,15.00
2023-02-23T15:05:42.416Z,14.13
2023-02-23T15:08:15.585Z,14.10
2023-02-23T15:10:46.671Z,13.30
2023-02-23T15:13:41.904Z,14.83
2023-02-23T15:16:14.495Z,13.87
2023-02-23T15:19:33.087Z,14.40
2023-02-23T15:22:27.368Z,13.77
2023-02-23T15:25:01.194Z,14.20
2023-02-23T15:28:01.308Z,14.40
2023-02-23T15:30:35.147Z,14.40
2023-02-23T15:33:13.640Z,16.00
2023-02-23T15:35:45.729Z,17.17
2023-02-23T15:39:06.093Z,15.73
2023-02-23T15:41:36.102Z,16.93
2023-02-23T15:44:09.984Z,16.87
2023-02-23T15:46:38.437Z,17.83
2023-02-23T15:49:06.958Z,16.57
2023-02-23T15:51:38.024Z,18.83
2023-02-23T15:54:13.716Z,18.07
2023-02-23T15:56:41.620Z,20.57
2023-02-23T15:59:15.453Z,14.47
2023-02-23T16:01:45.159Z,18.43
2023-02-23T16:04:19.141Z,18.90
2023-02-23T16:06:52.188Z,21.57
2023-02-23T16:09:28.174Z,21.73
2023-02-23T16:11:58.114Z,19.50
2023-02-23T16:14:30.238Z,22.57
2023-02-23T16:17:10.378Z,20.73
2023-02-23T16:19:41.615Z,20.50
2023-02-23T16:22:20.716Z,19.60
2023-02-23T16:24:57.413Z,16.67
2023-02-23T16:27:26.080Z,19.67
2023-02-23T16:30:01.216Z,16.27
2023-02-23T16:32:37.601Z,15.07
2023-02-23T16:35:12.873Z,14.80
2023-02-23T16:37:59.460Z,13.30
2023-02-23T16:40:27.264Z,13.97
2023-02-23T16:42:59.030Z,14.07
2023-02-23T16:45:29.600Z,11.87
2023-02-23T16:48:02.148Z,13.30
2023-02-23T16:50:31.978Z,17.10
2023-02-23T16:53:00.449Z,17.20
2023-02-23T16:55:29.424Z,15.23
2023-02-23T16:57:59.141Z,13.93
2023-02-23T17:00:31.101Z,13.33
2023-02-23T17:03:00.642Z,13.77
2023-02-23T17:05:30.256Z,12.00
2023-02-23T17:07:59.264Z,8.63
2023-02-23T17:10:30.099Z,5.13
2023-02-23T17:12:59.753Z,5.23
2023-02-23T17:15:29.429Z,4.37
2023-02-23T17:17:57.130Z,5.20
2023-02-23T17:20:25.987Z,3.60
2023-02-23T17:22:54.808Z,3.60
2023-02-23T17:25:24.358Z,5.03
2023-02-23T17:27:52.375Z,5.60
2023-02-23T17:30:20.828Z,5.00
2023-02-23T17:32:50.653Z,4.60
2023-02-23T17:35:18.901Z,4.50
2023-02-23T17:37:47.121Z,5.13
2023-02-23T17:40:17.098Z,2.93
2023-02-23T17:42:45.160Z,3.80
2023-02-23T17:45:12.936Z,5.37
2023-02-23T17:47:40.758Z,4.80
2023-02-23T17:50:11.380Z,4.07
2023-02-23T17:52:39.228Z,4.93
2023-02-23T17:55:08.815Z,3.87
2023-02-23T17:57:36.431Z,5.00
2023-02-23T18:00:06.938Z,4.37
2023-02-23T18:02:40.399Z,3.63
2023-02-23T18:05:10.651Z,4.10
2023-02-23T18:07:38.537Z,3.20
2023-02-23T18:10:07.335Z,5.13
2023-02-23T18:12:35.030Z,4.60
2023-02-23T18:15:02.932Z,4.63
2023-02-23T18:17:32.442Z,4.23
2023-02-23T18:20:00.299Z,4.83
2023-02-23T18:22:29.264Z,3.53
2023-02-23T18:24:57.353Z,4.97
2023-02-23T18:27:26.175Z,4.40
2023-02-23T18:29:53.764Z,3.90
2023-02-23T18:32:21.542Z,4.83
2023-02-23T18:34:49.375Z,4.13
2023-02-23T18:37:25.174Z,4.60
2023-02-23T18:39:55.749Z,4.03
2023-02-23T18:42:23.373Z,4.00
2023-02-23T18:44:51.043Z,3.40
2023-02-23T18:47:19.070Z,3.03
2023-02-23T18:49:47.617Z,4.47
2023-02-23T18:52:15.299Z,4.90
2023-02-23T18:54:43.023Z,3.80
2023-02-23T18:57:11.983Z,3.80
2023-02-23T18:59:39.677Z,4.00
2023-02-23T19:02:07.293Z,3.23
2023-02-23T19:04:36.579Z,3.80
2023-02-23T19:07:04.240Z,2.97
2023-02-23T19:09:32.503Z,3.23
2023-02-23T19:12:00.218Z,3.50
2023-02-23T19:14:48.448Z,4.03
2023-02-23T19:17:17.083Z,3.80
2023-02-23T19:19:44.824Z,4.40
2023-02-23T19:22:12.512Z,4.30
2023-02-23T19:24:40.704Z,3.87
2023-02-23T19:27:09.919Z,4.10
2023-02-23T19:29:39.122Z,4.07
2023-02-23T19:32:07.012Z,4.60
2023-02-23T19:34:34.845Z,3.93
2023-02-23T19:37:02.652Z,3.53
2023-02-23T19:39:30.368Z,3.37
2023-02-23T19:41:58.020Z,3.83
2023-02-23T19:44:25.632Z,4.13
2023-02-23T19:46:54.785Z,3.20
2023-02-23T19:49:22.390Z,3.90
2023-02-23T19:51:52.889Z,3.40
2023-02-23T19:54:21.306Z,2.70
2023-02-23T19:56:49.850Z,5.37
2023-02-23T19:59:17.565Z,3.53
2023-02-23T20:01:45.918Z,3.27
2023-02-23T20:04:14.885Z,4.30
2023-02-23T20:06:46.983Z,4.10
2023-02-23T20:09:15.325Z,3.90
2023-02-23T20:11:43.481Z,3.90
2023-02-23T20:14:12.512Z,6.80
2023-02-23T20:16:40.223Z,4.93
2023-02-23T20:19:07.907Z,4.60
2023-02-23T20:21:37.041Z,3.80
2023-02-23T20:24:06.105Z,3.33
2023-02-23T20:26:35.296Z,3.00
2023-02-23T20:29:03.366Z,3.67
2023-02-23T20:31:34.960Z,3.20
2023-02-23T20:34:04.743Z,3.70
2023-02-23T20:36:32.475Z,5.27
2023-02-23T20:39:01.397Z,3.90
2023-02-23T20:41:29.771Z,2.87
2023-02-23T20:43:57.466Z,3.07
2023-02-23T20:46:25.151Z,3.47
2023-02-23T20:48:52.748Z,3.43
2023-02-23T20:51:20.592Z,4.40
2023-02-23T20:53:49.088Z,3.20
2023-02-23T20:56:19.628Z,3.53
2023-02-23T20:58:47.763Z,3.87
2023-02-23T21:01:16.298Z,2.30
2023-02-23T21:03:43.951Z,3.47
2023-02-23T21:06:11.849Z,3.13
2023-02-23T21:08:39.907Z,4.23
2023-02-23T21:11:08.750Z,2.50
2023-02-23T21:13:38.596Z,3.03
2023-02-23T21:16:07.028Z,2.90
2023-02-23T21:18:34.850Z,3.00
2023-02-23T21:21:09.285Z,3.33
2023-02-23T21:23:37.190Z,5.13
2023-02-23T21:26:13.900Z,2.80
2023-02-23T21:28:44.177Z,2.93
2023-02-23T21:31:13.659Z,2.90
2023-02-23T21:33:42.540Z,2.30
2023-02-23T21:36:11.560Z,3.73
2023-02-23T21:38:39.511Z,2.87
2023-02-23T21:41:07.581Z,3.07
2023-02-23T21:43:36.087Z,3.47
2023-02-23T21:46:09.025Z,2.40
2023-02-23T21:48:36.897Z,3.07
2023-02-23T21:51:05.268Z,3.23
2023-02-23T21:53:32.946Z,4.10
2023-02-23T21:56:06.143Z,1.80
2023-02-23T21:58:34.152Z,2.93
2023-02-23T22:01:01.887Z,2.60
2023-02-23T22:03:31.284Z,2.57
2023-02-23T22:06:01.489Z,5.43
2023-02-23T22:08:29.230Z,2.47
2023-02-23T22:10:56.926Z,1.73
2023-02-23T22:13:24.785Z,2.20
2023-02-23T22:15:59.141Z,1.90
2023-02-23T22:18:28.403Z,1.57
2023-02-23T22:21:01.289Z,1.57
2023-02-23T22:23:28.995Z,1.30
2023-02-23T22:25:57.029Z,1.60
2023-02-23T22:28:26.453Z,1.30
2023-02-23T22:30:55.388Z,1.20
2023-02-23T22:33:23.981Z,2.37
2023-02-23T22:35:52.494Z,1.67
2023-02-23T22:38:21.536Z,1.80
2023-02-23T22:40:49.349Z,1.37
2023-02-23T22:43:17.215Z,1.77
2023-02-23T22:45:45.286Z,1.30
2023-02-23T22:48:14.330Z,1.43
2023-02-23T22:50:42.577Z,1.33
2023-02-23T22:53:11.624Z,1.40
2023-02-23T22:55:40.869Z,1.77
2023-02-23T22:58:10.321Z,1.30
2023-02-23T23:00:38.005Z,1.53
2023-02-23T23:03:05.857Z,2.10
2023-02-23T23:05:33.628Z,1.30
2023-02-23T23:08:01.257Z,1.17
2023-02-23T23:10:28.969Z,2.20
2023-02-23T23:12:59.331Z,1.67
2023-02-23T23:15:27.210Z,1.60
2023-02-23T23:17:54.852Z,1.73
2023-02-23T23:20:25.723Z,1.77
2023-02-23T23:22:53.747Z,1.30
2023-02-23T23:25:23.794Z,1.60
2023-02-23T23:27:53.849Z,1.10
2023-02-23T23:30:25.883Z,1.17
2023-02-23T23:32:53.959Z,1.50
2023-02-23T23:35:22.574Z,1.80
2023-02-23T23:37:51.409Z,1.33
2023-02-23T23:40:24.742Z,1.37
2023-02-23T23:42:52.919Z,1.40
2023-02-23T23:45:24.083Z,1.40
2023-02-23T23:47:53.377Z,0.97
2023-02-23T23:50:26.557Z,1.43
2023-02-23T23:52:54.737Z,1.10
2023-02-23T23:55:22.433Z,1.30
2023-02-23T23:57:50.216Z,1.30
